Terminal Aerodrome Forecast
Issued by NWS Quad Cities IA IL

Home | Current Version | Previous Version | Text Only | Print | Product List | Glossary On
Versions: 1 2 3 4 5 6 7 8 9 10 11 12 13 14 15 16 17 18 19 20 21
516
FTUS43 KDVN 282101 AAB
TAFMLI
TAF AMD
KMLI 282101Z 2821/2918 19014G22KT P6SM SCT040 SCT120
      TEMPO 2900/2902 3SM TSRA BKN035CB
     FM290200 22012G20KT 5SM TSRA BR OVC030CB
     FM290400 21013KT P6SM BKN080 PROB30 2906/2908 3SM TSRA
      BKN025CB=

USA.gov is the U.S. government's official web portal to all federal, state and local government web resources and services.